Terminal Aerodrome Forecast
Issued by NWS

Home | Current Version | Previous Version | Text Only | Print | Product List | Glossary On
Versions: 1 2 3 4 5 6 7 8 9 10 11 12 13 14 15
000
FTUS42 KMLB 151934 AAA
TAFSFB
TAF AMD
KSFB 151934Z 1520/1618 23011G17KT P6SM SCT045 BKN060
     FM160000 VRB04KT P6SM SCT250
     FM160900 35005KT P6SM FEW020 SCT250
     FM161500 03006KT P6SM FEW035 SCT070=

USA.gov is the U.S. government's official web portal to all federal, state and local government web resources and services.